createdAt,value
2019-04-04T00:01:30.681Z,22.40
2019-04-04T00:03:59.477Z,23.30
2019-04-04T00:06:28.293Z,22.27
2019-04-04T00:08:57.316Z,23.13
2019-04-04T00:11:26.311Z,23.33
2019-04-04T00:13:54.947Z,23.47
2019-04-04T00:16:23.521Z,23.20
2019-04-04T00:18:52.367Z,22.00
2019-04-04T00:21:20.733Z,23.70
2019-04-04T00:23:49.378Z,23.10
2019-04-04T00:26:19.713Z,22.37
2019-04-04T00:28:48.280Z,23.40
2019-04-04T00:31:18.902Z,22.67
2019-04-04T00:33:47.245Z,21.90
2019-04-04T00:36:15.674Z,22.13
2019-04-04T00:38:44.526Z,21.43
2019-04-04T00:41:13.589Z,21.13
2019-04-04T00:43:42.799Z,21.90
2019-04-04T00:46:11.346Z,21.40
2019-04-04T00:48:40.265Z,20.43
2019-04-04T00:51:08.898Z,19.93
2019-04-04T00:53:37.605Z,19.97
2019-04-04T00:56:06.452Z,18.77
2019-04-04T00:58:35.084Z,14.83
2019-04-04T01:01:03.572Z,11.30
2019-04-04T01:03:32.100Z,7.80
2019-04-04T01:06:02.805Z,6.10
2019-04-04T01:08:30.816Z,5.50
2019-04-04T01:10:59.309Z,5.40
2019-04-04T01:13:27.819Z,4.97
2019-04-04T01:15:56.317Z,4.67
2019-04-04T01:18:24.975Z,4.50
2019-04-04T01:20:53.398Z,4.90
2019-04-04T01:23:22.196Z,5.20
2019-04-04T01:25:50.777Z,4.93
2019-04-04T01:28:19.201Z,5.07
2019-04-04T01:30:47.831Z,4.73
2019-04-04T01:33:19.725Z,5.03
2019-04-04T01:35:47.109Z,4.77
2019-04-04T01:38:15.421Z,5.03
2019-04-04T01:40:43.729Z,4.90
2019-04-04T01:43:12.239Z,5.53
2019-04-04T01:45:43.746Z,4.80
2019-04-04T01:48:11.330Z,5.27
2019-04-04T01:50:40.043Z,4.77
2019-04-04T01:53:08.729Z,5.57
2019-04-04T01:55:37.385Z,5.23
2019-04-04T01:58:06.089Z,4.80
2019-04-04T02:00:34.569Z,4.63
2019-04-04T02:03:02.867Z,4.87
2019-04-04T02:05:31.334Z,5.10
2019-04-04T02:08:00.999Z,5.43
2019-04-04T02:10:29.821Z,5.27
2019-04-04T02:12:58.385Z,5.30
2019-04-04T02:15:26.704Z,4.93
2019-04-04T02:17:55.181Z,4.80
2019-04-04T02:20:25.015Z,4.43
2019-04-04T02:22:55.269Z,4.57
2019-04-04T02:25:24.011Z,4.57
2019-04-04T02:27:52.885Z,4.80
2019-04-04T02:30:21.287Z,5.07
2019-04-04T02:32:49.557Z,5.25
2019-04-04T02:35:17.993Z,4.63
2019-04-04T02:37:46.608Z,4.37
2019-04-04T02:40:15.208Z,4.83
2019-04-04T02:42:43.742Z,4.97
2019-04-04T02:45:13.027Z,4.50
2019-04-04T02:47:41.330Z,4.37
2019-04-04T02:50:10.034Z,4.93
2019-04-04T02:52:38.458Z,4.80
2019-04-04T02:55:07.548Z,5.80
2019-04-04T02:57:35.927Z,6.63
2019-04-04T03:00:05.022Z,10.07
2019-04-04T03:02:36.153Z,12.07
2019-04-04T03:05:05.322Z,14.80
2019-04-04T03:07:33.654Z,14.37
2019-04-04T03:10:02.457Z,14.53
2019-04-04T03:12:31.076Z,14.80
2019-04-04T03:15:00.066Z,15.30
2019-04-04T03:17:31.686Z,15.60
2019-04-04T03:19:59.263Z,17.23
2019-04-04T03:22:28.404Z,17.27
2019-04-04T03:24:57.166Z,15.60
2019-04-04T03:27:26.944Z,16.20
2019-04-04T03:29:56.071Z,17.57
2019-04-04T03:32:24.494Z,18.30
2019-04-04T03:34:53.051Z,16.03
2019-04-04T03:37:21.590Z,16.03
2019-04-04T03:39:53.084Z,17.80
2019-04-04T03:42:20.843Z,17.07
2019-04-04T03:44:52.827Z,17.07
2019-04-04T03:47:19.719Z,17.87
2019-04-04T03:49:48.484Z,17.23
2019-04-04T03:52:17.115Z,17.33
2019-04-04T03:54:45.802Z,18.30
2019-04-04T03:57:14.543Z,16.63
2019-04-04T03:59:43.453Z,15.13
2019-04-04T04:02:11.870Z,16.80
2019-04-04T04:04:40.481Z,17.27
2019-04-04T04:07:08.895Z,16.33
2019-04-04T04:09:37.425Z,17.37
2019-04-04T04:12:10.225Z,14.17
2019-04-04T04:14:36.515Z,14.57
2019-04-04T04:17:04.838Z,13.57
2019-04-04T04:19:33.172Z,12.37
2019-04-04T04:22:01.630Z,12.37
2019-04-04T04:24:30.431Z,11.67
2019-04-04T04:26:59.080Z,11.47
2019-04-04T04:29:29.866Z,11.60
2019-04-04T04:31:58.142Z,11.53
2019-04-04T04:34:26.981Z,11.87
2019-04-04T04:36:55.577Z,11.37
2019-04-04T04:39:24.007Z,10.53
2019-04-04T04:41:54.149Z,12.35
2019-04-04T04:44:22.879Z,12.00
2019-04-04T04:46:51.477Z,10.67
2019-04-04T04:49:23.218Z,10.73
2019-04-04T04:51:50.458Z,10.47
2019-04-04T04:54:20.491Z,10.30
2019-04-04T04:56:50.381Z,11.20
2019-04-04T04:59:18.974Z,11.50
2019-04-04T05:01:50.140Z,11.13
2019-04-04T05:04:18.277Z,10.27
2019-04-04T05:06:46.909Z,11.33
2019-04-04T05:09:15.281Z,9.97
2019-04-04T05:11:43.785Z,9.97
2019-04-04T05:14:12.715Z,8.73
2019-04-04T05:16:41.709Z,9.13
2019-04-04T05:19:10.312Z,8.53
2019-04-04T05:21:38.837Z,7.50
2019-04-04T05:24:07.766Z,8.40
2019-04-04T05:26:38.755Z,8.13
2019-04-04T05:29:07.847Z,7.43
2019-04-04T05:31:36.406Z,7.97
2019-04-04T05:34:04.993Z,7.87
2019-04-04T05:36:36.051Z,7.97
2019-04-04T05:39:05.239Z,7.53
2019-04-04T05:41:33.791Z,7.90
2019-04-04T05:44:02.358Z,8.33
2019-04-04T05:46:30.750Z,9.13
2019-04-04T05:49:00.967Z,8.60
2019-04-04T05:51:29.581Z,9.30
2019-04-04T05:53:59.309Z,9.60
2019-04-04T05:56:27.580Z,10.03
2019-04-04T05:58:56.109Z,10.93
2019-04-04T06:01:24.758Z,10.77
2019-04-04T06:03:53.150Z,11.10
2019-04-04T06:06:21.762Z,12.60
2019-04-04T06:08:50.255Z,11.80
2019-04-04T06:11:20.895Z,12.97
2019-04-04T06:13:49.469Z,11.90
2019-04-04T06:16:18.407Z,11.27
2019-04-04T06:18:49.090Z,11.03
2019-04-04T06:21:18.836Z,10.37
2019-04-04T06:23:48.047Z,10.43
2019-04-04T06:26:16.570Z,10.77
2019-04-04T06:28:45.521Z,10.77
2019-04-04T06:31:14.286Z,10.77
2019-04-04T06:33:42.917Z,8.73
2019-04-04T06:36:11.518Z,7.03
2019-04-04T06:38:39.994Z,6.20
2019-04-04T06:41:09.007Z,5.87
2019-04-04T06:43:41.385Z,6.30
2019-04-04T06:46:09.009Z,7.63
2019-04-04T06:48:37.469Z,11.50
2019-04-04T06:51:06.051Z,13.00
2019-04-04T06:53:34.514Z,13.80
2019-04-04T06:56:03.248Z,14.07
2019-04-04T06:58:31.959Z,12.23
2019-04-04T07:01:00.950Z,10.27
2019-04-04T07:03:29.579Z,7.17
2019-04-04T07:05:57.904Z,5.43
2019-04-04T07:08:26.221Z,5.20
2019-04-04T07:10:58.066Z,5.07
2019-04-04T07:13:27.910Z,5.23
2019-04-04T07:16:06.002Z,5.43
2019-04-04T07:18:25.981Z,5.40
2019-04-04T07:20:54.326Z,5.40
2019-04-04T07:23:22.869Z,5.17
2019-04-04T07:25:53.476Z,5.20
2019-04-04T07:28:21.654Z,4.47
2019-04-04T07:30:50.290Z,4.00
2019-04-04T07:33:21.271Z,4.77
2019-04-04T07:35:49.617Z,4.57
2019-04-04T07:38:18.563Z,4.73
2019-04-04T07:40:47.448Z,4.27
2019-04-04T07:43:17.091Z,4.17
2019-04-04T07:45:46.829Z,4.03
2019-04-04T07:48:17.690Z,4.10
2019-04-04T07:50:46.647Z,4.10
2019-04-04T07:53:15.490Z,4.10
2019-04-04T07:55:45.099Z,3.97
2019-04-04T07:58:13.513Z,4.07
2019-04-04T08:00:41.925Z,3.80
2019-04-04T08:03:11.004Z,5.07
2019-04-04T08:05:40.921Z,4.30
2019-04-04T08:08:09.855Z,4.23
2019-04-04T08:10:38.014Z,4.07
2019-04-04T08:13:06.714Z,4.90
2019-04-04T08:15:36.008Z,4.30
2019-04-04T08:18:04.796Z,4.20
2019-04-04T08:20:33.814Z,3.93
2019-04-04T08:23:02.481Z,4.10
2019-04-04T08:25:31.321Z,4.10
2019-04-04T08:28:00.262Z,3.97
2019-04-04T08:30:28.754Z,4.67
2019-04-04T08:32:57.678Z,3.80
2019-04-04T08:35:26.314Z,3.70
2019-04-04T08:37:54.950Z,3.60
2019-04-04T08:40:23.744Z,4.30
2019-04-04T08:42:52.623Z,3.80
2019-04-04T08:45:21.109Z,4.00
2019-04-04T08:47:49.755Z,4.03
2019-04-04T08:50:18.501Z,4.10
2019-04-04T08:52:47.318Z,3.70
2019-04-04T08:55:16.420Z,4.43
2019-04-04T08:57:44.981Z,4.20
2019-04-04T09:00:13.600Z,4.63
2019-04-04T09:02:42.390Z,4.70
2019-04-04T09:05:12.495Z,4.43
2019-04-04T09:07:41.658Z,5.53
2019-04-04T09:10:10.230Z,5.47
2019-04-04T09:12:38.698Z,4.67
2019-04-04T09:15:07.747Z,4.97
2019-04-04T09:17:36.015Z,4.50
2019-04-04T09:20:05.157Z,4.40
2019-04-04T09:22:33.822Z,4.93
2019-04-04T09:25:02.392Z,4.77
2019-04-04T09:27:31.049Z,5.10
2019-04-04T09:29:59.833Z,4.90
2019-04-04T09:32:28.354Z,6.20
2019-04-04T09:34:57.248Z,5.57
2019-04-04T09:37:25.729Z,4.57
2019-04-04T09:39:54.621Z,4.73
2019-04-04T09:42:23.149Z,6.00
2019-04-04T09:44:51.981Z,4.60
2019-04-04T09:47:20.567Z,4.53
2019-04-04T09:49:49.408Z,5.23
2019-04-04T09:52:18.626Z,4.37
2019-04-04T09:54:47.369Z,4.90
2019-04-04T09:57:16.261Z,4.83
2019-04-04T09:59:46.163Z,4.90
2019-04-04T10:02:14.613Z,5.00
2019-04-04T10:04:42.955Z,4.97
2019-04-04T10:07:11.736Z,5.53
2019-04-04T10:09:40.698Z,4.80
2019-04-04T10:12:09.078Z,5.30
2019-04-04T10:14:37.467Z,5.60
2019-04-04T10:17:05.767Z,7.63
2019-04-04T10:19:34.185Z,5.70
2019-04-04T10:22:02.731Z,6.30
2019-04-04T10:24:31.314Z,6.87
2019-04-04T10:26:59.986Z,6.53
2019-04-04T10:29:28.687Z,7.63
2019-04-04T10:31:57.681Z,8.13
2019-04-04T10:34:28.411Z,6.97
2019-04-04T10:36:56.816Z,7.87
2019-04-04T10:39:29.036Z,7.07
2019-04-04T10:41:56.013Z,7.50
2019-04-04T10:44:24.756Z,7.83
2019-04-04T10:46:53.789Z,7.60
2019-04-04T10:49:23.333Z,8.53
2019-04-04T10:51:52.352Z,7.13
2019-04-04T10:54:21.100Z,6.13
2019-04-04T10:56:50.013Z,7.20
2019-04-04T10:59:19.021Z,5.97
2019-04-04T11:01:47.710Z,5.97
2019-04-04T11:04:16.085Z,5.93
2019-04-04T11:06:44.761Z,6.50
2019-04-04T11:09:13.395Z,6.53
2019-04-04T11:11:41.922Z,6.47
2019-04-04T11:14:10.584Z,6.73
2019-04-04T11:16:39.194Z,8.30
2019-04-04T11:19:09.717Z,9.37
2019-04-04T11:21:38.724Z,8.07
2019-04-04T11:24:07.456Z,7.67
2019-04-04T11:26:36.084Z,7.87
2019-04-04T11:29:05.805Z,7.23
2019-04-04T11:31:34.742Z,7.50
2019-04-04T11:34:03.490Z,6.70
2019-04-04T11:36:32.380Z,7.37
2019-04-04T11:39:01.258Z,7.17
2019-04-04T11:41:31.532Z,5.93
2019-04-04T11:44:00.142Z,5.60
2019-04-04T11:46:29.321Z,5.90
2019-04-04T11:48:58.311Z,7.57
2019-04-04T11:51:26.988Z,5.63
2019-04-04T11:53:55.829Z,6.00
2019-04-04T11:56:24.285Z,5.97
2019-04-04T11:58:52.997Z,6.30
2019-04-04T12:01:22.036Z,4.97
2019-04-04T12:03:51.039Z,6.20
2019-04-04T12:06:20.828Z,5.90
2019-04-04T12:08:49.295Z,6.10
2019-04-04T12:11:17.833Z,5.47
2019-04-04T12:13:46.765Z,5.03
2019-04-04T12:16:16.004Z,5.40
2019-04-04T12:18:44.651Z,4.77
2019-04-04T12:21:13.346Z,4.27
2019-04-04T12:23:42.122Z,4.63
2019-04-04T12:26:10.697Z,3.87
2019-04-04T12:28:39.740Z,5.03
2019-04-04T12:31:08.733Z,4.60
2019-04-04T12:33:37.446Z,4.30
2019-04-04T12:36:06.245Z,4.70
2019-04-04T12:38:35.128Z,4.37
2019-04-04T12:41:04.055Z,3.60
2019-04-04T12:43:33.040Z,4.03
2019-04-04T12:46:01.872Z,4.40
2019-04-04T12:48:30.444Z,4.53
2019-04-04T12:50:59.174Z,4.37
2019-04-04T12:53:28.016Z,3.90
2019-04-04T12:55:56.457Z,3.70
2019-04-04T12:58:25.368Z,3.47
2019-04-04T13:00:54.501Z,3.77
2019-04-04T13:03:23.189Z,4.07
2019-04-04T13:05:51.855Z,4.23
2019-04-04T13:08:20.867Z,4.23
2019-04-04T13:10:49.784Z,4.10
2019-04-04T13:13:18.165Z,4.20
2019-04-04T13:15:46.885Z,4.00
2019-04-04T13:18:15.233Z,3.70
2019-04-04T13:20:44.075Z,3.37
2019-04-04T13:23:12.705Z,4.37
2019-04-04T13:25:42.367Z,3.67
2019-04-04T13:28:12.470Z,3.40
2019-04-04T13:30:42.027Z,4.10
2019-04-04T13:33:10.689Z,4.10
2019-04-04T13:35:39.480Z,3.93
2019-04-04T13:38:08.168Z,3.50
2019-04-04T13:40:45.344Z,3.50
2019-04-04T13:43:07.332Z,3.50
2019-04-04T13:45:36.070Z,3.20
2019-04-04T13:48:04.675Z,3.20
2019-04-04T13:50:33.444Z,3.33
2019-04-04T13:53:02.435Z,3.63
2019-04-04T13:55:31.507Z,3.03
2019-04-04T13:58:00.061Z,3.70
2019-04-04T14:00:28.993Z,3.23
2019-04-04T14:02:57.750Z,3.30
2019-04-04T14:05:26.476Z,3.20
2019-04-04T14:07:55.021Z,3.03
2019-04-04T14:10:23.540Z,2.90
2019-04-04T14:12:52.216Z,3.57
2019-04-04T14:15:20.912Z,3.10
2019-04-04T14:17:49.750Z,3.67
2019-04-04T14:20:18.317Z,2.90
2019-04-04T14:22:47.757Z,2.63
2019-04-04T14:25:16.466Z,2.90
2019-04-04T14:27:44.751Z,3.37
2019-04-04T14:30:13.165Z,3.40
2019-04-04T14:32:41.417Z,3.10
2019-04-04T14:38:21.706Z,3.10
2019-04-04T14:40:50.053Z,3.20
2019-04-04T14:43:18.305Z,3.30
2019-04-04T14:46:06.797Z,3.63
2019-04-04T14:48:36.058Z,3.70
2019-04-04T14:51:04.520Z,4.40
2019-04-04T14:53:32.849Z,4.53
2019-04-04T14:56:01.165Z,5.13
2019-04-04T14:58:30.746Z,5.03
2019-04-04T15:00:59.202Z,7.90
2019-04-04T15:03:27.424Z,4.47
2019-04-04T15:05:55.534Z,5.43
2019-04-04T15:08:23.772Z,5.67
2019-04-04T15:10:52.137Z,6.23
2019-04-04T15:13:20.239Z,5.57
2019-04-04T15:16:10.103Z,5.40
2019-04-04T15:18:38.317Z,4.57
2019-04-04T15:21:06.652Z,4.80
2019-04-04T15:23:34.782Z,4.50
2019-04-04T15:26:03.164Z,4.30
2019-04-04T15:28:31.603Z,5.37
2019-04-04T15:30:59.911Z,3.37
2019-04-04T15:33:28.190Z,4.00
2019-04-04T15:35:56.437Z,3.87
2019-04-04T15:38:24.742Z,4.17
2019-04-04T15:40:53.128Z,4.30
2019-04-04T15:43:25.251Z,3.57
2019-04-04T15:45:53.516Z,3.77
2019-04-04T15:48:21.815Z,3.80
2019-04-04T15:50:50.051Z,3.83
2019-04-04T15:53:18.339Z,3.80
2019-04-04T15:55:47.509Z,3.60
2019-04-04T15:58:15.799Z,2.73
2019-04-04T16:00:44.268Z,2.80
2019-04-04T16:03:12.597Z,2.43
2019-04-04T16:05:41.360Z,2.40
2019-04-04T16:08:09.642Z,2.98
2019-04-04T16:10:38.927Z,3.13
2019-04-04T16:13:07.297Z,3.33
2019-04-04T16:15:35.866Z,3.57
2019-04-04T16:18:04.360Z,4.27
2019-04-04T16:20:32.619Z,3.30
2019-04-04T16:23:00.920Z,3.90
2019-04-04T16:25:29.064Z,3.77
2019-04-04T16:27:57.322Z,3.47
2019-04-04T16:30:25.676Z,3.93
2019-04-04T16:32:54.018Z,3.00
2019-04-04T16:35:22.431Z,3.92
2019-04-04T16:37:50.754Z,4.00
2019-04-04T16:40:19.352Z,3.47
2019-04-04T16:42:47.631Z,3.77
2019-04-04T16:45:15.876Z,4.30
2019-04-04T16:47:44.304Z,3.20
2019-04-04T16:50:13.109Z,3.27
2019-04-04T16:52:41.845Z,3.07
2019-04-04T16:55:10.334Z,3.80
2019-04-04T16:57:38.489Z,4.23
2019-04-04T17:00:08.067Z,3.77
2019-04-04T17:02:36.165Z,3.67
2019-04-04T17:05:05.897Z,3.50
2019-04-04T17:07:36.951Z,3.03
2019-04-04T17:10:50.037Z,4.10
2019-04-04T17:25:49.084Z,4.03
2019-04-04T17:28:17.973Z,4.07
2019-04-04T17:30:46.589Z,3.33
2019-04-04T17:33:15.009Z,3.73
2019-04-04T17:35:43.596Z,3.57
2019-04-04T17:38:11.977Z,3.73
2019-04-04T17:40:40.288Z,3.80
2019-04-04T17:43:09.226Z,4.00
2019-04-04T17:45:37.958Z,6.20
2019-04-04T17:48:06.556Z,4.80
2019-04-04T17:50:35.677Z,4.03
2019-04-04T17:53:04.337Z,3.97
2019-04-04T17:55:34.659Z,4.20
2019-04-04T17:58:03.494Z,4.77
2019-04-04T18:00:32.231Z,5.27
2019-04-04T18:03:01.020Z,4.87
2019-04-04T18:08:09.659Z,4.10
2019-04-04T18:10:39.224Z,4.20
2019-04-04T18:13:08.056Z,4.43
2019-04-04T18:15:36.740Z,4.20
2019-04-04T18:18:05.473Z,4.33
2019-04-04T18:20:34.277Z,3.90
2019-04-04T18:23:02.789Z,3.90
2019-04-04T18:25:31.435Z,3.83
2019-04-04T18:28:02.849Z,5.13
2019-04-04T18:30:32.584Z,4.27
2019-04-04T18:33:01.333Z,4.37
2019-04-04T18:35:30.510Z,4.30
2019-04-04T18:37:59.144Z,4.93
2019-04-04T18:40:27.603Z,4.10
2019-04-04T18:42:57.384Z,4.07
2019-04-04T18:45:27.117Z,6.13
2019-04-04T18:47:55.656Z,4.80
2019-04-04T18:50:25.364Z,4.83
2019-04-04T18:52:53.699Z,4.47
2019-04-04T18:55:22.856Z,4.07
2019-04-04T18:57:51.577Z,4.20
2019-04-04T19:00:20.176Z,4.10
2019-04-04T19:02:48.936Z,5.47
2019-04-04T19:05:17.704Z,4.73
2019-04-04T19:07:46.199Z,5.50
2019-04-04T19:10:15.174Z,5.80
2019-04-04T19:12:43.544Z,5.23
2019-04-04T19:15:12.201Z,5.03
2019-04-04T19:17:41.276Z,4.97
2019-04-04T19:20:10.556Z,5.40
2019-04-04T19:22:39.449Z,5.53
2019-04-04T19:25:08.545Z,5.50
2019-04-04T19:27:37.989Z,6.60
2019-04-04T19:30:06.837Z,5.67
2019-04-04T19:32:35.820Z,5.67
2019-04-04T19:35:05.320Z,5.90
2019-04-04T19:37:33.705Z,5.97
2019-04-04T19:40:02.510Z,6.42
2019-04-04T19:42:33.127Z,6.43
2019-04-04T19:45:02.700Z,6.30
2019-04-04T19:47:32.145Z,7.17
2019-04-04T19:50:00.758Z,5.93
2019-04-04T19:52:29.702Z,7.43
2019-04-04T19:54:59.374Z,6.97
2019-04-04T19:57:28.934Z,8.33
2019-04-04T19:59:57.833Z,8.93
2019-04-04T20:02:30.124Z,7.43
2019-04-04T20:04:59.453Z,7.53
2019-04-04T20:07:28.756Z,7.90
2019-04-04T20:09:58.256Z,7.80
2019-04-04T20:12:29.004Z,8.27
2019-04-04T20:14:58.927Z,8.57
2019-04-04T20:17:28.974Z,8.53
2019-04-04T20:19:58.507Z,7.07
2019-04-04T20:22:27.949Z,8.27
2019-04-04T20:24:57.584Z,7.27
2019-04-04T20:27:26.219Z,8.13
2019-04-04T20:29:54.852Z,7.93
2019-04-04T20:32:24.433Z,8.27
2019-04-04T20:34:53.489Z,7.03
2019-04-04T20:37:22.716Z,6.60
2019-04-04T20:39:52.340Z,7.67
2019-04-04T20:42:21.018Z,7.47
2019-04-04T20:44:50.155Z,7.37
2019-04-04T20:47:18.849Z,7.27
2019-04-04T20:49:47.477Z,8.10
2019-04-04T20:52:16.161Z,7.47
2019-04-04T20:54:45.255Z,7.23
2019-04-04T20:57:14.453Z,9.40
2019-04-04T20:59:42.988Z,9.53
2019-04-04T21:02:11.709Z,7.63
2019-04-04T21:04:40.554Z,7.47
2019-04-04T21:07:09.668Z,7.10
2019-04-04T21:09:38.812Z,8.77
2019-04-04T21:12:07.810Z,8.20
2019-04-04T21:14:36.261Z,8.13
2019-04-04T21:17:07.297Z,6.93
2019-04-04T21:19:36.258Z,8.40
2019-04-04T21:22:05.498Z,8.00
2019-04-04T21:24:33.984Z,8.00
2019-04-04T21:27:02.697Z,8.60
2019-04-04T21:29:31.363Z,5.80
2019-04-04T21:32:00.020Z,5.63
2019-04-04T21:34:28.298Z,8.07
2019-04-04T21:36:57.509Z,7.30
2019-04-04T21:39:29.618Z,9.37
2019-04-04T21:41:57.654Z,7.33
2019-04-04T21:44:26.946Z,7.47
2019-04-04T21:46:55.964Z,6.63
2019-04-04T21:49:24.569Z,7.77
2019-04-04T21:51:53.163Z,6.83
2019-04-04T21:54:21.546Z,8.00
2019-04-04T21:56:50.330Z,7.80
2019-04-04T21:59:19.376Z,8.17
2019-04-04T22:01:48.190Z,6.10
2019-04-04T22:04:16.658Z,8.47
2019-04-04T22:06:45.698Z,6.47
2019-04-04T22:09:17.325Z,5.33
2019-04-04T22:11:46.439Z,5.57
2019-04-04T22:14:21.495Z,5.93
2019-04-04T22:16:46.093Z,5.10
2019-04-04T22:19:14.683Z,5.77
2019-04-04T22:21:43.382Z,5.23
2019-04-04T22:24:12.270Z,4.53
2019-04-04T22:26:41.017Z,5.07
2019-04-04T22:29:09.510Z,5.70
2019-04-04T22:31:38.554Z,6.70
2019-04-04T22:34:07.290Z,4.70
2019-04-04T22:36:35.702Z,5.73
2019-04-04T22:39:06.130Z,5.30
2019-04-04T22:41:34.633Z,5.80
2019-04-04T22:44:03.942Z,3.37
2019-04-04T22:46:32.627Z,2.27
2019-04-04T22:49:01.642Z,1.93
2019-04-04T22:51:30.635Z,2.13
2019-04-04T22:53:59.265Z,3.13
2019-04-04T22:56:27.585Z,1.93
2019-04-04T22:58:56.388Z,2.10
2019-04-04T23:01:29.041Z,2.30
2019-04-04T23:03:56.473Z,3.03
2019-04-04T23:06:25.516Z,2.60
2019-04-04T23:08:55.273Z,3.67
2019-04-04T23:11:23.761Z,3.17
2019-04-04T23:13:52.348Z,3.07
2019-04-04T23:16:22.349Z,3.73
2019-04-04T23:18:50.751Z,3.80
2019-04-04T23:21:19.782Z,3.13
2019-04-04T23:23:49.695Z,3.87
2019-04-04T23:26:18.358Z,3.33
2019-04-04T23:28:47.374Z,2.97
2019-04-04T23:31:16.366Z,3.77
2019-04-04T23:33:45.371Z,2.30
2019-04-04T23:36:14.353Z,2.87
2019-04-04T23:38:42.914Z,2.50
2019-04-04T23:41:11.465Z,2.83
2019-04-04T23:43:39.989Z,2.70
2019-04-04T23:46:08.740Z,2.60
2019-04-04T23:48:37.221Z,1.93
2019-04-04T23:51:05.825Z,2.00
2019-04-04T23:53:34.066Z,2.43
2019-04-04T23:56:02.569Z,2.30
2019-04-04T23:58:30.917Z,1.90
